Clear Creek, Indiana
Current Conditions -  °F | °C
As of 2:53 AM on Thursday 29 Jan 2015 (Local Time) from KBMG Reporting Station
Overcast Overcast  
Wind Chill: 30°   Ceiling: 11000
Heat Index: 37°   Visibility: 10mi
Dew Point: 20°   Wind: 9mph
Humidity: 50%   Direction: 170°S
Pressure: 29.91"   Gusts: NA
Location:  39.11°N, 86.54°W
Report Text: KBMG 290753Z AUTO 17008KT 10SM FEW080 OVC110 03/M07 A2991 RMK AO2 SLP134 T00281067
Loading
Personal Weather Stations






























Interactive Weather Map New forecast layout! Learn more

10-Day Weather Forecast

Advertisements
Track Severe Weather on mobile